Terminal Aerodrome Forecast
Issued by NWS

Home | Current Version | Previous Version | Text Only | Print | Product List | Glossary On
Versions: 1 2 3 4 5 6 7 8 9 10 11 12 13 14 15 16 17 18
000
FTPA31 PHFO 231700
TAFOGG
TAF
PHOG 231736Z 2318/2418 VRB03KT P6SM SCT040
     FM232000 04016G23KT P6SM FEW035 SCT050
     FM240600 05009KT P6SM SCT045
      AMD LTD TO WX VIS AND WIND 2409/2416=

USA.gov is the U.S. government's official web portal to all federal, state and local government web resources and services.